Fu Yu Shan — BOHM — position and weather

sailwx.info

Track history (hours):
 
Tides and Currents Weather Stations Pressure Air Temp Water Temp Dewpoint Dewpoint Depression Visibility Wind Speed Wind Dir Waves Ship Positions

Fu Yu Shan

Last reported at 2014-Jun-03 14:13 UTC. Time now 2014-Oct-25 15:21 UTC.
Position N 30°18' E 121°49'.
Warning: this ship's position is months out of date.

Length 151 m; draft 5.4 m.

Type: Cargo ship. MMSI: 412228000.

Date/timePositionNaut miles runAvg speedWind from/ knotsBaromVisibWave heightAir tempDewpointWater temp
2014-Jun-03 14:13N 30°18' E 121°49'911.0
2014-Jun-03 13:23N 30°23' E 121°58'1511.4
2014-Jun-03 12:03N 30°23' E 122°16'9 9.9
2014-Jun-03 11:06N 30°20' E 122°26'1010.5
2014-Jun-03 10:07N 30°14' E 122°36'610.7
2014-Jun-03 09:32N 30°08' E 122°37'1712.2
2014-Jun-03 08:10N 29°52' E 122°39'813.3
2014-Jun-03 07:33N 29°44' E 122°37'1413.6
2014-Jun-03 06:29N 29°30' E 122°34'1314.0
2014-Jun-03 05:33N 29°16' E 122°32'32613.6
2014-Jun-02 05:33N 24°45' E 119°10'1414.3
2014-Jun-02 04:33N 24°42' E 118°54'1312.8
2014-Jun-02 03:33N 24°38' E 118°41'0 0.0
2014-Jun-01 20:11N 24°38' E 118°41'0 0.0
2014-Jun-01 10:23N 24°38' E 118°41'0 0.0
2014-Jun-01 08:29N 24°38' E 118°41'0 0.0
2014-Jun-01 07:29N 24°38' E 118°41'0 0.0
2014-Jun-01 06:11N 24°38' E 118°41'0 0.0
2014-Jun-01 05:29N 24°38' E 118°41'0 0.0
2014-Jun-01 04:29N 24°38' E 118°41'0 0.0
2014-Jun-01 03:23N 24°38' E 118°41'0 0.0
2014-Jun-01 01:29N 24°38' E 118°41'0 0.0
2014-Jun-01 00:23N 24°38' E 118°41'0 0.0
2014-May-31 23:29N 24°38' E 118°41'0 0.0
2014-May-31 22:29N 24°38' E 118°41'0 0.0
2014-May-31 20:11N 24°38' E 118°41'0 0.0
2014-May-31 19:29N 24°38' E 118°41'0 0.0
2014-May-31 17:05N 24°38' E 118°41'0 0.0
2014-May-31 16:29N 24°38' E 118°41'0 0.0
2014-May-31 15:29N 24°38' E 118°41'0 0.0
2014-May-31 14:29N 24°38' E 118°41'0 0.0
2014-May-31 13:28N 24°38' E 118°41'0 0.0
2014-May-31 12:28N 24°38' E 118°41'0 0.0
2014-May-31 11:28N 24°38' E 118°41'0 0.0
2014-May-31 10:28N 24°38' E 118°41'0 0.0
2014-May-31 09:28N 24°38' E 118°41'0 0.0
2014-May-31 08:28N 24°38' E 118°41'0 0.0
2014-May-31 07:28N 24°38' E 118°41'0 0.0
2014-May-31 06:04N 24°38' E 118°41'0 0.0
2014-May-31 05:16N 24°38' E 118°41'0 0.0
2014-May-31 04:22N 24°38' E 118°41'0 0.0
2014-May-31 02:22N 24°38' E 118°41'0 0.0
2014-May-31 01:22N 24°38' E 118°41'0 0.0
2014-May-30 20:04N 24°38' E 118°41'0 0.0
2014-May-30 19:28N 24°38' E 118°41'0 0.0
2014-May-30 17:22N 24°38' E 118°41'0 0.0
2014-May-30 14:04N 24°38' E 118°41'0 0.0
2014-May-30 13:28N 24°38' E 118°41'0 0.0
2014-May-30 10:28N 24°38' E 118°41'0 0.0
2014-May-30 09:28N 24°38' E 118°41'0 0.0
2014-May-30 08:28N 24°38' E 118°41'0 0.0
2014-May-30 07:28N 24°38' E 118°41'0 0.0
2014-May-30 06:16N 24°38' E 118°41'0 0.0
2014-May-30 03:16N 24°38' E 118°41'0 0.1
2014-May-30 02:31N 24°38' E 118°41'2 0.9
2014-May-30 00:32N 24°39' E 118°42'0 0.0
2014-May-29 22:26N 24°39' E 118°42'0 0.0
2014-May-29 21:26N 24°39' E 118°42'0 0.1
2014-May-29 20:32N 24°39' E 118°42'0 0.0
2014-May-29 18:32N 24°39' E 118°42'0 0.0
2014-May-29 17:32N 24°39' E 118°42'0 0.0
2014-May-29 15:31N 24°39' E 118°42'0 0.1
2014-May-29 14:31N 24°39' E 118°42'0 0.0
2014-May-29 09:19N 24°39' E 118°42'1 1.4
2014-May-29 08:33N 24°38' E 118°43'1211.5
2014-May-29 07:32N 24°26' E 118°43'1211.9
2014-May-29 06:33N 24°15' E 118°40'3211.4
2014-May-29 03:43N 23°49' E 118°19'212.1
2014-May-29 03:31N 23°48' E 118°17'1312.6
2014-May-29 02:30N 23°39' E 118°06'  
Track history (hours):
 
Tides and Currents Weather Stations Pressure Air Temp Water Temp Dewpoint Dewpoint Depression Visibility Wind Speed Wind Dir Waves Ship Positions

Fu Yu Shan

Last reported at 2014-Jun-03 14:13 UTC. Time now 2014-Oct-25 15:21 UTC.
Position N 30°18' E 121°49'.
Warning: this ship's position is months out of date.

Length 151 m; draft 5.4 m.

Type: Cargo ship. MMSI: 412228000.

Date/timePositionNaut miles runAvg speedWind from/ knotsBaromVisibWave heightAir tempDewpointWater temp
2014-Jun-03 14:13N 30°18' E 121°49'911.0
2014-Jun-03 13:23N 30°23' E 121°58'1511.4
2014-Jun-03 12:03N 30°23' E 122°16'9 9.9
2014-Jun-03 11:06N 30°20' E 122°26'1010.5
2014-Jun-03 10:07N 30°14' E 122°36'610.7
2014-Jun-03 09:32N 30°08' E 122°37'1712.2
2014-Jun-03 08:10N 29°52' E 122°39'813.3
2014-Jun-03 07:33N 29°44' E 122°37'1413.6
2014-Jun-03 06:29N 29°30' E 122°34'1314.0
2014-Jun-03 05:33N 29°16' E 122°32'32613.6
2014-Jun-02 05:33N 24°45' E 119°10'1414.3
2014-Jun-02 04:33N 24°42' E 118°54'1312.8
2014-Jun-02 03:33N 24°38' E 118°41'0 0.0
2014-Jun-01 20:11N 24°38' E 118°41'0 0.0
2014-Jun-01 10:23N 24°38' E 118°41'0 0.0
2014-Jun-01 08:29N 24°38' E 118°41'0 0.0
2014-Jun-01 07:29N 24°38' E 118°41'0 0.0
2014-Jun-01 06:11N 24°38' E 118°41'0 0.0
2014-Jun-01 05:29N 24°38' E 118°41'0 0.0
2014-Jun-01 04:29N 24°38' E 118°41'0 0.0
2014-Jun-01 03:23N 24°38' E 118°41'0 0.0
2014-Jun-01 01:29N 24°38' E 118°41'0 0.0
2014-Jun-01 00:23N 24°38' E 118°41'0 0.0
2014-May-31 23:29N 24°38' E 118°41'0 0.0
2014-May-31 22:29N 24°38' E 118°41'0 0.0
2014-May-31 20:11N 24°38' E 118°41'0 0.0
2014-May-31 19:29N 24°38' E 118°41'0 0.0
2014-May-31 17:05N 24°38' E 118°41'0 0.0
2014-May-31 16:29N 24°38' E 118°41'0 0.0
2014-May-31 15:29N 24°38' E 118°41'0 0.0
2014-May-31 14:29N 24°38' E 118°41'0 0.0
2014-May-31 13:28N 24°38' E 118°41'0 0.0
2014-May-31 12:28N 24°38' E 118°41'0 0.0
2014-May-31 11:28N 24°38' E 118°41'0 0.0
2014-May-31 10:28N 24°38' E 118°41'0 0.0
2014-May-31 09:28N 24°38' E 118°41'0 0.0
2014-May-31 08:28N 24°38' E 118°41'0 0.0
2014-May-31 07:28N 24°38' E 118°41'0 0.0
2014-May-31 06:04N 24°38' E 118°41'0 0.0
2014-May-31 05:16N 24°38' E 118°41'0 0.0
2014-May-31 04:22N 24°38' E 118°41'0 0.0
2014-May-31 02:22N 24°38' E 118°41'0 0.0
2014-May-31 01:22N 24°38' E 118°41'0 0.0
2014-May-30 20:04N 24°38' E 118°41'0 0.0
2014-May-30 19:28N 24°38' E 118°41'0 0.0
2014-May-30 17:22N 24°38' E 118°41'0 0.0
2014-May-30 14:04N 24°38' E 118°41'0 0.0
2014-May-30 13:28N 24°38' E 118°41'0 0.0
2014-May-30 10:28N 24°38' E 118°41'0 0.0
2014-May-30 09:28N 24°38' E 118°41'0 0.0
2014-May-30 08:28N 24°38' E 118°41'0 0.0
2014-May-30 07:28N 24°38' E 118°41'0 0.0
2014-May-30 06:16N 24°38' E 118°41'0 0.0
2014-May-30 03:16N 24°38' E 118°41'0 0.1
2014-May-30 02:31N 24°38' E 118°41'2 0.9
2014-May-30 00:32N 24°39' E 118°42'0 0.0
2014-May-29 22:26N 24°39' E 118°42'0 0.0
2014-May-29 21:26N 24°39' E 118°42'0 0.1
2014-May-29 20:32N 24°39' E 118°42'0 0.0
2014-May-29 18:32N 24°39' E 118°42'0 0.0
2014-May-29 17:32N 24°39' E 118°42'0 0.0
2014-May-29 15:31N 24°39' E 118°42'0 0.1
2014-May-29 14:31N 24°39' E 118°42'0 0.0
2014-May-29 09:19N 24°39' E 118°42'1 1.4
2014-May-29 08:33N 24°38' E 118°43'1211.5
2014-May-29 07:32N 24°26' E 118°43'1211.9
2014-May-29 06:33N 24°15' E 118°40'3211.4
2014-May-29 03:43N 23°49' E 118°19'212.1
2014-May-29 03:31N 23°48' E 118°17'1312.6
2014-May-29 02:30N 23°39' E 118°06'  

Dump ship's entire track history